Pine Beach, NJ

2:43 PM EDT on August 04, 2015 (GMT -0400)
Bluff | | Change Station
CLOSE
Current Station
Personal Weather Station
Location: Island Heights, NJ
Elevation: 60 ft
Nearby Weather Stations

Elev 60 ft 39.94 °N, 74.15 °W | Updated 10 seconds ago

Clear
Clear
87.9 °F
Feels Like 92 °F
N
4.0
Wind Variable Wind from WNW
Gusts 13.0 mph

Today
High -- | Low -- °F
--% Chance of Precip.
Yesterday
High -- | Low -- °F
Precip. -- in
5:57 AM 8:07 PM
Waning Gibbous, 75% visible
Pressure 29.86 in
Visibility 10.0 miles
Clouds Clear
Heat Index 92 °F
Dew Point 68 °F
Humidity 52%
Rainfall 0.00 in
Snow Depth Not available.
UV 10 out of 12
Pollen 7.80 out of 12
Air Quality Not available.
Flu Activity Not available.
METAR KNEL 041800Z AUTO 28011G18KT 240V310 10SM CLR 33/17 A2986 RMK AO2 SLP110 T03280172 10328 20222 58005

More Conditions Fewer Conditions

Pressure 29.86 in
Visibility 10.0 miles
Clouds Clear
Heat Index 92 °F
Dew Point 68 °F
Humidity 52%
Rainfall 0.00 in
Snow Depth Not available.
UV 10 out of 12
Pollen 7.80 out of 12
Air Quality Not available.
Flu Activity Not available.
METAR KNEL 041800Z AUTO 28011G18KT 240V310 10SM CLR 33/17 A2986 RMK AO2 SLP110 T03280172 10328 20222 58005

More Conditions Fewer Conditions

10-Day Weather Forecast

×

Almanac

Astronomy

Aug. 04, 2015 Rise Set
Actual Time
Civil Twilight
Nautical Twilight
Astronomical Twilight
Moon
Length of Visible Light
Length of Day
Tomorrow will be .
, % of the Moon is Illuminated

Today's Extremes

State Highs State Lows

Community

WunderPhotos

Upload Photos

1,843,937 photos uploaded!

WunderBlogs® & News

Nearby

Air Quality

  Air Quality AQ Index Pollutant
Not available.

Snow Depth

Station Depth Elevation

Earthquake Activity

City Distance Mag. Time & Date
Minimum magnitude displayed is 2.5.

Coastal Water Temperatures

Place Temperature

Stations

Nearby Weather Stations

Station Location Temp. Windchill Dew Point Humidity Wind Precip. Elev Updated Type